sensor_id;sensor_type;location;lat;lon;timestamp;pressure;altitude;pressure_sealevel;temperature;humidity
30856;BME280;17570;0.000;0.000;2023-03-14T00:01:15;97129.73;;;14.15;29.44
30856;BME280;17570;0.000;0.000;2023-03-14T00:03:42;97134.29;;;14.13;29.96
30856;BME280;17570;0.000;0.000;2023-03-14T00:06:10;97135.64;;;14.08;30.02
30856;BME280;17570;0.000;0.000;2023-03-14T00:08:38;97141.16;;;14.04;29.89
30856;BME280;17570;0.000;0.000;2023-03-14T00:11:14;97144.86;;;14.02;30.02
30856;BME280;17570;0.000;0.000;2023-03-14T00:13:38;97145.98;;;13.99;29.55
30856;BME280;17570;0.000;0.000;2023-03-14T00:16:06;97147.33;;;13.94;29.93
30856;BME280;17570;0.000;0.000;2023-03-14T00:18:34;97150.09;;;13.92;29.79
30856;BME280;17570;0.000;0.000;2023-03-14T00:21:02;97150.66;;;13.86;29.87
30856;BME280;17570;0.000;0.000;2023-03-14T00:23:30;97146.41;;;13.85;29.53
30856;BME280;17570;0.000;0.000;2023-03-14T00:26:04;97146.67;;;13.82;29.66
30856;BME280;17570;0.000;0.000;2023-03-14T00:28:27;97145.03;;;13.81;29.69
30856;BME280;17570;0.000;0.000;2023-03-14T00:30:55;97141.16;;;13.75;29.68
30856;BME280;17570;0.000;0.000;2023-03-14T00:33:22;97137.20;;;13.71;29.72
30856;BME280;17570;0.000;0.000;2023-03-14T00:35:54;97133.22;;;13.67;29.91
30856;BME280;17570;0.000;0.000;2023-03-14T00:38:22;97129.78;;;13.67;30.07
30856;BME280;17570;0.000;0.000;2023-03-14T00:40:51;97126.06;;;13.60;30.11
30856;BME280;17570;0.000;0.000;2023-03-14T00:43:19;97124.28;;;13.60;29.86
30856;BME280;17570;0.000;0.000;2023-03-14T00:45:49;97125.24;;;13.59;30.33
30856;BME280;17570;0.000;0.000;2023-03-14T00:48:17;97114.25;;;13.56;30.01
30856;BME280;17570;0.000;0.000;2023-03-14T00:50:45;97110.97;;;13.53;30.22
30856;BME280;17570;0.000;0.000;2023-03-14T00:53:14;97107.25;;;13.46;30.01
30856;BME280;17570;0.000;0.000;2023-03-14T00:55:43;97110.82;;;13.45;29.84
30856;BME280;17570;0.000;0.000;2023-03-14T00:58:11;97104.64;;;13.46;29.88
30856;BME280;17570;0.000;0.000;2023-03-14T01:00:40;97101.36;;;13.44;30.52
30856;BME280;17570;0.000;0.000;2023-03-14T01:03:08;97099.58;;;13.45;30.66
30856;BME280;17570;0.000;0.000;2023-03-14T01:05:36;97101.48;;;13.43;30.35
30856;BME280;17570;0.000;0.000;2023-03-14T01:08:03;97095.44;;;13.42;30.23
30856;BME280;17570;0.000;0.000;2023-03-14T01:10:33;97088.59;;;13.41;30.26
30856;BME280;17570;0.000;0.000;2023-03-14T01:13:01;97086.27;;;13.38;30.15
30856;BME280;17570;0.000;0.000;2023-03-14T01:15:29;97087.77;;;13.41;30.08
30856;BME280;17570;0.000;0.000;2023-03-14T01:17:57;97074.58;;;13.42;29.97
30856;BME280;17570;0.000;0.000;2023-03-14T01:20:24;97078.45;;;13.38;29.96
30856;BME280;17570;0.000;0.000;2023-03-14T01:22:53;97078.16;;;13.32;29.77
30856;BME280;17570;0.000;0.000;2023-03-14T01:25:21;97066.91;;;13.31;29.82
30856;BME280;17570;0.000;0.000;2023-03-14T01:27:48;97062.66;;;13.30;29.85
30856;BME280;17570;0.000;0.000;2023-03-14T01:30:16;97058.41;;;13.29;29.84
30856;BME280;17570;0.000;0.000;2023-03-14T01:32:43;97054.84;;;13.30;29.75
30856;BME280;17570;0.000;0.000;2023-03-14T01:35:11;97048.92;;;13.28;29.84
30856;BME280;17570;0.000;0.000;2023-03-14T01:37:39;97044.82;;;13.25;29.80
30856;BME280;17570;0.000;0.000;2023-03-14T01:40:11;97042.48;;;13.22;29.88
30856;BME280;17570;0.000;0.000;2023-03-14T01:42:39;97040.25;;;13.18;30.06
30856;BME280;17570;0.000;0.000;2023-03-14T01:47:52;97031.05;;;13.14;30.28
30856;BME280;17570;0.000;0.000;2023-03-14T01:50:20;97031.05;;;13.04;30.71
30856;BME280;17570;0.000;0.000;2023-03-14T01:52:48;97036.41;;;13.02;29.89
30856;BME280;17570;0.000;0.000;2023-03-14T01:55:20;97035.44;;;13.03;30.08
30856;BME280;17570;0.000;0.000;2023-03-14T01:57:49;97042.44;;;13.03;30.07
30856;BME280;17570;0.000;0.000;2023-03-14T02:00:18;97041.76;;;13.01;30.29
30856;BME280;17570;0.000;0.000;2023-03-14T02:02:48;97046.41;;;12.97;30.12
30856;BME280;17570;0.000;0.000;2023-03-14T02:05:23;97056.01;;;12.97;30.14
30856;BME280;17570;0.000;0.000;2023-03-14T02:07:52;97058.20;;;12.92;30.07
30856;BME280;17570;0.000;0.000;2023-03-14T02:10:23;97055.42;;;12.84;30.27
30856;BME280;17570;0.000;0.000;2023-03-14T02:12:51;97053.64;;;12.84;30.09
30856;BME280;17570;0.000;0.000;2023-03-14T02:15:24;97046.09;;;12.81;30.24
30856;BME280;17570;0.000;0.000;2023-03-14T02:17:59;97053.34;;;12.77;30.69
30856;BME280;17570;0.000;0.000;2023-03-14T02:23:31;97056.20;;;12.65;30.71
30856;BME280;17570;0.000;0.000;2023-03-14T02:25:55;97046.19;;;12.60;30.75
30856;BME280;17570;0.000;0.000;2023-03-14T02:28:22;97057.16;;;12.64;30.92
30856;BME280;17570;0.000;0.000;2023-03-14T02:30:52;97054.56;;;12.64;30.73
30856;BME280;17570;0.000;0.000;2023-03-14T02:33:20;97055.89;;;12.58;30.65
30856;BME280;17570;0.000;0.000;2023-03-14T02:35:50;97058.64;;;12.57;30.92
30856;BME280;17570;0.000;0.000;2023-03-14T02:38:53;97056.28;;;12.54;30.77
30856;BME280;17570;0.000;0.000;2023-03-14T02:40:53;97052.44;;;12.48;30.83
30856;BME280;17570;0.000;0.000;2023-03-14T02:43:21;97051.19;;;12.42;30.55
30856;BME280;17570;0.000;0.000;2023-03-14T02:45:50;97053.93;;;12.41;30.92
30856;BME280;17570;0.000;0.000;2023-03-14T02:48:43;97057.61;;;12.38;31.25
30856;BME280;17570;0.000;0.000;2023-03-14T02:50:50;97061.17;;;12.37;31.05
30856;BME280;17570;0.000;0.000;2023-03-14T02:53:20;97057.86;;;12.35;30.96
30856;BME280;17570;0.000;0.000;2023-03-14T02:55:48;97053.61;;;12.34;31.19
30856;BME280;17570;0.000;0.000;2023-03-14T02:58:17;97049.37;;;12.33;31.21
30856;BME280;17570;0.000;0.000;2023-03-14T03:00:46;97055.53;;;12.32;31.44
30856;BME280;17570;0.000;0.000;2023-03-14T03:03:13;97052.50;;;12.27;31.06
30856;BME280;17570;0.000;0.000;2023-03-14T03:05:41;97053.58;;;12.24;31.15
30856;BME280;17570;0.000;0.000;2023-03-14T03:08:13;97059.02;;;12.21;30.86
30856;BME280;17570;0.000;0.000;2023-03-14T03:10:41;97055.06;;;12.17;30.86
30856;BME280;17570;0.000;0.000;2023-03-14T03:13:10;97059.30;;;12.18;31.00
30856;BME280;17570;0.000;0.000;2023-03-14T03:15:41;97055.88;;;12.18;30.86
30856;BME280;17570;0.000;0.000;2023-03-14T03:18:08;97061.58;;;12.12;31.25
30856;BME280;17570;0.000;0.000;2023-03-14T03:20:36;97056.52;;;12.10;31.17
30856;BME280;17570;0.000;0.000;2023-03-14T03:23:03;97052.84;;;12.13;30.97
30856;BME280;17570;0.000;0.000;2023-03-14T03:25:31;97053.77;;;12.12;30.78
30856;BME280;17570;0.000;0.000;2023-03-14T03:28:00;97043.27;;;12.13;30.85
30856;BME280;17570;0.000;0.000;2023-03-14T03:30:28;97039.13;;;12.11;31.01
30856;BME280;17570;0.000;0.000;2023-03-14T03:32:56;97036.80;;;12.08;31.17
30856;BME280;17570;0.000;0.000;2023-03-14T03:35:23;97036.23;;;12.04;30.95
30856;BME280;17570;0.000;0.000;2023-03-14T03:37:52;97022.89;;;11.97;31.14
30856;BME280;17570;0.000;0.000;2023-03-14T03:40:21;97019.86;;;11.92;30.97
30856;BME280;17570;0.000;0.000;2023-03-14T03:42:49;97017.26;;;11.92;31.25
30856;BME280;17570;0.000;0.000;2023-03-14T03:45:17;97013.70;;;11.93;31.35
30856;BME280;17570;0.000;0.000;2023-03-14T03:47:46;97014.80;;;11.91;31.25
30856;BME280;17570;0.000;0.000;2023-03-14T03:50:14;97008.78;;;11.90;31.25
30856;BME280;17570;0.000;0.000;2023-03-14T03:52:41;97011.63;;;11.87;31.32
30856;BME280;17570;0.000;0.000;2023-03-14T03:55:09;97006.56;;;11.86;31.08
30856;BME280;17570;0.000;0.000;2023-03-14T03:57:36;97007.63;;;11.83;31.43
30856;BME280;17570;0.000;0.000;2023-03-14T04:00:04;97000.18;;;11.79;31.16
30856;BME280;17570;0.000;0.000;2023-03-14T04:02:34;97004.15;;;11.94;30.86
30856;BME280;17570;0.000;0.000;2023-03-14T04:05:02;96997.70;;;11.98;30.86
30856;BME280;17570;0.000;0.000;2023-03-14T04:07:31;96999.44;;;11.88;30.88
30856;BME280;17570;0.000;0.000;2023-03-14T04:09:59;96997.23;;;11.83;30.84
30856;BME280;17570;0.000;0.000;2023-03-14T04:12:34;96985.80;;;11.95;30.53
30856;BME280;17570;0.000;0.000;2023-03-14T04:15:07;96980.45;;;11.97;31.12
30856;BME280;17570;0.000;0.000;2023-03-14T04:17:36;96989.47;;;11.93;31.36
30856;BME280;17570;0.000;0.000;2023-03-14T04:20:04;96989.86;;;11.88;30.96
30856;BME280;17570;0.000;0.000;2023-03-14T04:22:35;96974.76;;;12.03;30.55
30856;BME280;17570;0.000;0.000;2023-03-14T04:25:03;96980.20;;;12.00;31.09
30856;BME280;17570;0.000;0.000;2023-03-14T04:27:32;96972.94;;;11.94;31.23
30856;BME280;17570;0.000;0.000;2023-03-14T04:30:01;96972.55;;;11.98;30.87
30856;BME280;17570;0.000;0.000;2023-03-14T04:32:33;96971.88;;;12.06;31.23
30856;BME280;17570;0.000;0.000;2023-03-14T04:35:01;96974.00;;;11.91;31.49
30856;BME280;17570;0.000;0.000;2023-03-14T04:37:29;96970.88;;;11.97;31.06
30856;BME280;17570;0.000;0.000;2023-03-14T04:39:56;96970.80;;;12.09;30.75
30856;BME280;17570;0.000;0.000;2023-03-14T04:42:28;96978.67;;;11.97;31.50
30856;BME280;17570;0.000;0.000;2023-03-14T04:44:56;96980.45;;;11.97;31.00
30856;BME280;17570;0.000;0.000;2023-03-14T04:47:25;96981.28;;;11.97;32.03
30856;BME280;17570;0.000;0.000;2023-03-14T04:49:55;96986.38;;;11.99;31.03
30856;BME280;17570;0.000;0.000;2023-03-14T04:52:24;96982.42;;;12.05;30.82
30856;BME280;17570;0.000;0.000;2023-03-14T04:54:51;96988.41;;;11.95;31.66
30856;BME280;17570;0.000;0.000;2023-03-14T04:57:20;96992.39;;;11.99;31.05
30856;BME280;17570;0.000;0.000;2023-03-14T04:59:49;96992.33;;;12.20;35.84
30856;BME280;17570;0.000;0.000;2023-03-14T05:02:19;96985.23;;;12.22;36.91
30856;BME280;17570;0.000;0.000;2023-03-14T05:04:48;96987.27;;;12.19;36.34
30856;BME280;17570;0.000;0.000;2023-03-14T05:07:24;96985.88;;;12.15;36.34
30856;BME280;17570;0.000;0.000;2023-03-14T05:09:56;96978.72;;;12.07;35.99
30856;BME280;17570;0.000;0.000;2023-03-14T05:12:28;96981.70;;;12.03;36.39
30856;BME280;17570;0.000;0.000;2023-03-14T05:14:59;96978.67;;;11.97;35.52
30856;BME280;17570;0.000;0.000;2023-03-14T05:17:34;96976.36;;;11.94;34.75
30856;BME280;17570;0.000;0.000;2023-03-14T05:20:07;96967.98;;;11.91;35.33
30856;BME280;17570;0.000;0.000;2023-03-14T05:22:46;96972.86;;;11.84;35.71
30856;BME280;17570;0.000;0.000;2023-03-14T05:25:18;96977.59;;;11.79;34.20
30856;BME280;17570;0.000;0.000;2023-03-14T05:27:48;96966.98;;;12.13;34.71
30856;BME280;17570;0.000;0.000;2023-03-14T05:30:17;96967.02;;;12.22;36.64
30856;BME280;17570;0.000;0.000;2023-03-14T05:32:47;96960.85;;;12.23;37.00
30856;BME280;17570;0.000;0.000;2023-03-14T05:35:26;96966.31;;;12.20;36.91
30856;BME280;17570;0.000;0.000;2023-03-14T05:37:55;96963.81;;;12.09;36.57
30856;BME280;17570;0.000;0.000;2023-03-14T05:40:36;96960.11;;;12.12;35.81
30856;BME280;17570;0.000;0.000;2023-03-14T05:43:24;96962.43;;;12.05;35.98
30856;BME280;17570;0.000;0.000;2023-03-14T05:46:02;96958.83;;;11.96;35.43
30856;BME280;17570;0.000;0.000;2023-03-14T05:48:39;96961.43;;;11.96;34.70
30856;BME280;17570;0.000;0.000;2023-03-14T05:51:27;96959.54;;;11.98;34.68
30856;BME280;17570;0.000;0.000;2023-03-14T05:54:12;96954.73;;;11.94;34.59
30856;BME280;17570;0.000;0.000;2023-03-14T05:56:44;96955.66;;;11.93;34.58
30856;BME280;17570;0.000;0.000;2023-03-14T05:59:29;96948.85;;;12.02;34.43
30856;BME280;17570;0.000;0.000;2023-03-14T06:02:02;96951.73;;;11.98;34.49
30856;BME280;17570;0.000;0.000;2023-03-14T06:04:31;96952.84;;;12.06;34.40
30856;BME280;17570;0.000;0.000;2023-03-14T06:06:59;96952.05;;;12.15;34.41
30856;BME280;17570;0.000;0.000;2023-03-14T06:09:27;96949.05;;;12.19;34.26
30856;BME280;17570;0.000;0.000;2023-03-14T06:11:56;96953.86;;;12.24;34.29
30856;BME280;17570;0.000;0.000;2023-03-14T06:14:24;96956.33;;;12.25;33.98
30856;BME280;17570;0.000;0.000;2023-03-14T06:16:51;96952.39;;;12.31;34.14
30856;BME280;17570;0.000;0.000;2023-03-14T06:19:21;96945.94;;;12.35;34.01
30856;BME280;17570;0.000;0.000;2023-03-14T06:21:50;96945.53;;;12.40;33.85
30856;BME280;17570;0.000;0.000;2023-03-14T06:24:18;96952.13;;;12.44;33.76
30856;BME280;17570;0.000;0.000;2023-03-14T06:26:46;96941.31;;;12.48;33.67
30856;BME280;17570;0.000;0.000;2023-03-14T06:29:14;96943.52;;;12.53;33.41
30856;BME280;17570;0.000;0.000;2023-03-14T06:31:41;96945.60;;;12.59;33.16
30856;BME280;17570;0.000;0.000;2023-03-14T06:34:09;96939.98;;;12.64;33.07
30856;BME280;17570;0.000;0.000;2023-03-14T06:36:38;96932.30;;;12.72;32.85
30856;BME280;17570;0.000;0.000;2023-03-14T06:39:06;96931.89;;;12.76;32.68
30856;BME280;17570;0.000;0.000;2023-03-14T06:41:35;96934.91;;;12.82;32.46
30856;BME280;17570;0.000;0.000;2023-03-14T06:44:03;96923.96;;;12.88;32.57
30856;BME280;17570;0.000;0.000;2023-03-14T06:49:21;96915.73;;;13.02;31.95
30856;BME280;17570;0.000;0.000;2023-03-14T06:51:51;96911.19;;;13.04;31.82
30856;BME280;17570;0.000;0.000;2023-03-14T06:54:18;96913.66;;;13.15;31.53
30856;BME280;17570;0.000;0.000;2023-03-14T06:56:46;96903.25;;;13.25;31.29
30856;BME280;17570;0.000;0.000;2023-03-14T06:59:14;96905.95;;;13.33;31.31
30856;BME280;17570;0.000;0.000;2023-03-14T07:01:43;96897.98;;;13.44;30.79
30856;BME280;17570;0.000;0.000;2023-03-14T07:04:11;96888.62;;;13.51;30.77
30856;BME280;17570;0.000;0.000;2023-03-14T07:06:40;96892.98;;;13.61;30.34
30856;BME280;17570;0.000;0.000;2023-03-14T07:09:10;96886.40;;;13.66;29.85
30856;BME280;17570;0.000;0.000;2023-03-14T07:11:39;96877.02;;;13.73;29.14
30856;BME280;17570;0.000;0.000;2023-03-14T07:14:06;96878.92;;;13.81;29.00
30856;BME280;17570;0.000;0.000;2023-03-14T07:16:34;96877.08;;;13.91;28.75
30856;BME280;17570;0.000;0.000;2023-03-14T07:19:03;96871.00;;;14.00;28.62
30856;BME280;17570;0.000;0.000;2023-03-14T07:21:31;96868.33;;;14.10;28.43
30856;BME280;17570;0.000;0.000;2023-03-14T07:24:01;96870.22;;;14.18;28.08
30856;BME280;17570;0.000;0.000;2023-03-14T07:26:30;96868.93;;;14.22;28.09
30856;BME280;17570;0.000;0.000;2023-03-14T07:28:57;96864.49;;;14.32;28.85
30856;BME280;17570;0.000;0.000;2023-03-14T07:31:26;96860.55;;;14.46;27.90
30856;BME280;17570;0.000;0.000;2023-03-14T07:33:55;96867.20;;;14.58;27.49
30856;BME280;17570;0.000;0.000;2023-03-14T07:36:24;96862.88;;;14.67;27.16
30856;BME280;17570;0.000;0.000;2023-03-14T07:38:53;96854.80;;;14.78;27.13
30856;BME280;17570;0.000;0.000;2023-03-14T07:41:22;96854.58;;;14.89;27.02
30856;BME280;17570;0.000;0.000;2023-03-14T07:43:51;96852.70;;;14.99;26.50
30856;BME280;17570;0.000;0.000;2023-03-14T07:46:20;96856.03;;;15.10;25.84
30856;BME280;17570;0.000;0.000;2023-03-14T07:48:48;96852.66;;;15.17;25.80
30856;BME280;17570;0.000;0.000;2023-03-14T07:51:15;96852.56;;;15.27;24.89
30856;BME280;17570;0.000;0.000;2023-03-14T07:53:43;96854.91;;;15.38;24.62
30856;BME280;17570;0.000;0.000;2023-03-14T07:56:12;96842.69;;;15.47;23.38
30856;BME280;17570;0.000;0.000;2023-03-14T07:58:39;96835.20;;;15.52;24.19
30856;BME280;17570;0.000;0.000;2023-03-14T08:01:07;96832.33;;;15.63;23.82
30856;BME280;17570;0.000;0.000;2023-03-14T08:03:34;96834.17;;;15.71;23.97
30856;BME280;17570;0.000;0.000;2023-03-14T08:06:01;96830.47;;;15.81;23.56
30856;BME280;17570;0.000;0.000;2023-03-14T08:08:29;96827.72;;;15.91;23.59
30856;BME280;17570;0.000;0.000;2023-03-14T08:11:01;96829.70;;;15.97;22.80
30856;BME280;17570;0.000;0.000;2023-03-14T08:13:25;96825.14;;;16.07;22.29
30856;BME280;17570;0.000;0.000;2023-03-14T08:15:53;96815.68;;;16.15;22.60
30856;BME280;17570;0.000;0.000;2023-03-14T08:18:20;96817.48;;;16.22;22.56
30856;BME280;17570;0.000;0.000;2023-03-14T08:20:48;96805.22;;;16.31;22.00
30856;BME280;17570;0.000;0.000;2023-03-14T08:23:15;96814.09;;;16.38;21.90
30856;BME280;17570;0.000;0.000;2023-03-14T08:25:43;96806.71;;;16.50;21.34
30856;BME280;17570;0.000;0.000;2023-03-14T08:28:10;96798.69;;;16.59;20.76
30856;BME280;17570;0.000;0.000;2023-03-14T08:30:37;96794.45;;;16.67;20.30
30856;BME280;17570;0.000;0.000;2023-03-14T08:33:05;96789.06;;;16.76;20.20
30856;BME280;17570;0.000;0.000;2023-03-14T08:35:32;96791.19;;;16.89;20.29
30856;BME280;17570;0.000;0.000;2023-03-14T08:38:00;96781.66;;;16.96;20.45
30856;BME280;17570;0.000;0.000;2023-03-14T08:40:27;96779.35;;;17.09;20.25
30856;BME280;17570;0.000;0.000;2023-03-14T08:42:55;96772.47;;;17.17;20.18
30856;BME280;17570;0.000;0.000;2023-03-14T08:45:22;96770.97;;;17.22;20.15
30856;BME280;17570;0.000;0.000;2023-03-14T08:47:51;96763.90;;;17.31;20.04
30856;BME280;17570;0.000;0.000;2023-03-14T08:50:18;96767.95;;;17.42;20.13
30856;BME280;17570;0.000;0.000;2023-03-14T08:52:46;96759.39;;;17.48;19.95
30856;BME280;17570;0.000;0.000;2023-03-14T08:55:13;96766.42;;;17.55;19.48
30856;BME280;17570;0.000;0.000;2023-03-14T08:57:41;96761.96;;;17.64;19.67
30856;BME280;17570;0.000;0.000;2023-03-14T09:00:09;96755.72;;;17.73;19.30
30856;BME280;17570;0.000;0.000;2023-03-14T09:02:38;96751.88;;;17.84;19.49
30856;BME280;17570;0.000;0.000;2023-03-14T09:05:06;96754.13;;;17.95;19.99
30856;BME280;17570;0.000;0.000;2023-03-14T09:07:36;96749.68;;;18.42;21.73
30856;BME280;17570;0.000;0.000;2023-03-14T09:10:04;96747.80;;;18.73;22.25
30856;BME280;17570;0.000;0.000;2023-03-14T09:12:33;96742.76;;;18.86;22.00
30856;BME280;17570;0.000;0.000;2023-03-14T09:15:00;96739.86;;;18.96;21.12
30856;BME280;17570;0.000;0.000;2023-03-14T09:17:28;96725.17;;;19.02;20.79
30856;BME280;17570;0.000;0.000;2023-03-14T09:19:56;96721.99;;;19.06;19.51
30856;BME280;17570;0.000;0.000;2023-03-14T09:22:23;96722.56;;;19.17;19.06
30856;BME280;17570;0.000;0.000;2023-03-14T09:24:51;96713.94;;;19.23;18.65
30856;BME280;17570;0.000;0.000;2023-03-14T09:27:21;96723.98;;;19.34;18.36
30856;BME280;17570;0.000;0.000;2023-03-14T09:29:50;96722.27;;;19.41;17.97
30856;BME280;17570;0.000;0.000;2023-03-14T09:32:17;96711.19;;;19.46;17.81
30856;BME280;17570;0.000;0.000;2023-03-14T09:34:45;96708.89;;;19.57;18.17
30856;BME280;17570;0.000;0.000;2023-03-14T09:37:12;96708.06;;;19.72;17.25
30856;BME280;17570;0.000;0.000;2023-03-14T09:39:42;96698.08;;;19.82;17.27
30856;BME280;17570;0.000;0.000;2023-03-14T09:42:12;96698.19;;;19.95;16.66
30856;BME280;17570;0.000;0.000;2023-03-14T09:44:39;96691.43;;;20.07;16.34
30856;BME280;17570;0.000;0.000;2023-03-14T09:47:09;96686.66;;;20.18;16.56
30856;BME280;17570;0.000;0.000;2023-03-14T09:49:37;96687.78;;;20.30;17.18
30856;BME280;17570;0.000;0.000;2023-03-14T09:52:07;96677.52;;;20.42;16.86
30856;BME280;17570;0.000;0.000;2023-03-14T09:54:49;96670.77;;;20.54;19.77
30856;BME280;17570;0.000;0.000;2023-03-14T09:57:18;96667.79;;;20.63;18.08
30856;BME280;17570;0.000;0.000;2023-03-14T09:59:42;96661.80;;;20.76;18.40
30856;BME280;17570;0.000;0.000;2023-03-14T10:02:28;96657.01;;;20.93;20.29
30856;BME280;17570;0.000;0.000;2023-03-14T10:04:52;96646.68;;;20.98;20.36
30856;BME280;17570;0.000;0.000;2023-03-14T10:07:30;96646.52;;;21.06;20.75
30856;BME280;17570;0.000;0.000;2023-03-14T10:09:58;96637.48;;;21.22;20.31
30856;BME280;17570;0.000;0.000;2023-03-14T10:12:37;96634.89;;;21.35;20.33
30856;BME280;17570;0.000;0.000;2023-03-14T10:15:03;96635.75;;;21.49;20.80
30856;BME280;17570;0.000;0.000;2023-03-14T10:17:37;96626.85;;;21.63;21.04
30856;BME280;17570;0.000;0.000;2023-03-14T10:20:02;96622.02;;;21.80;20.86
30856;BME280;17570;0.000;0.000;2023-03-14T10:22:30;96615.94;;;22.00;20.74
30856;BME280;17570;0.000;0.000;2023-03-14T10:25:03;96607.05;;;22.21;20.86
30856;BME280;17570;0.000;0.000;2023-03-14T10:27:35;96604.16;;;22.42;20.98
30856;BME280;17570;0.000;0.000;2023-03-14T10:29:59;96594.97;;;22.64;21.41
30856;BME280;17570;0.000;0.000;2023-03-14T10:32:34;96585.75;;;22.87;21.36
30856;BME280;17570;0.000;0.000;2023-03-14T10:37:53;96572.98;;;23.29;20.57
30856;BME280;17570;0.000;0.000;2023-03-14T10:40:24;96573.09;;;23.47;20.42
30856;BME280;17570;0.000;0.000;2023-03-14T10:42:50;96563.81;;;23.70;20.22
30856;BME280;17570;0.000;0.000;2023-03-14T10:47:53;96547.39;;;24.29;19.20
30856;BME280;17570;0.000;0.000;2023-03-14T10:50:26;96548.05;;;24.50;19.01
30856;BME280;17570;0.000;0.000;2023-03-14T10:52:51;96540.02;;;24.75;18.74
30856;BME280;17570;0.000;0.000;2023-03-14T10:55:19;96531.13;;;24.99;18.25
30856;BME280;17570;0.000;0.000;2023-03-14T10:57:47;96527.00;;;25.22;17.59
30856;BME280;17570;0.000;0.000;2023-03-14T11:00:15;96526.06;;;25.46;17.62
30856;BME280;17570;0.000;0.000;2023-03-14T11:08:17;96505.81;;;26.10;17.10
30856;BME280;17570;0.000;0.000;2023-03-14T11:10:43;96498.62;;;26.34;17.29
30856;BME280;17570;0.000;0.000;2023-03-14T11:15:44;96486.73;;;26.89;16.98
30856;BME280;17570;0.000;0.000;2023-03-14T11:20:58;96475.09;;;27.35;16.58
30856;BME280;17570;0.000;0.000;2023-03-14T11:23:35;96465.48;;;27.51;16.49
30856;BME280;17570;0.000;0.000;2023-03-14T11:26:01;96454.80;;;27.80;16.32
30856;BME280;17570;0.000;0.000;2023-03-14T11:28:39;96446.09;;;28.06;16.29
30856;BME280;17570;0.000;0.000;2023-03-14T11:31:24;96440.94;;;28.38;15.94
30856;BME280;17570;0.000;0.000;2023-03-14T11:36:27;96418.06;;;28.91;15.61
30856;BME280;17570;0.000;0.000;2023-03-14T11:38:55;96417.30;;;29.23;15.43
30856;BME280;17570;0.000;0.000;2023-03-14T11:41:24;96404.52;;;29.57;17.03
30856;BME280;17570;0.000;0.000;2023-03-14T11:43:53;96404.47;;;29.89;17.72
30856;BME280;17570;0.000;0.000;2023-03-14T11:46:27;96394.73;;;30.20;17.48
30856;BME280;17570;0.000;0.000;2023-03-14T11:51:26;96384.25;;;30.82;15.98
30856;BME280;17570;0.000;0.000;2023-03-14T11:56:37;96371.46;;;31.45;15.25
30856;BME280;17570;0.000;0.000;2023-03-14T11:59:15;96368.48;;;31.72;14.46
30856;BME280;17570;0.000;0.000;2023-03-14T12:04:22;96355.73;;;32.23;14.76
30856;BME280;17570;0.000;0.000;2023-03-14T12:06:50;96346.48;;;32.50;14.57
30856;BME280;17570;0.000;0.000;2023-03-14T12:09:18;96345.22;;;32.82;14.33
30856;BME280;17570;0.000;0.000;2023-03-14T12:11:57;96339.12;;;33.10;13.85
30856;BME280;17570;0.000;0.000;2023-03-14T12:14:33;96329.20;;;33.40;13.32
30856;BME280;17570;0.000;0.000;2023-03-14T16:17:02;96087.61;;;21.67;19.51
30856;BME280;17570;0.000;0.000;2023-03-14T16:19:31;96091.80;;;22.74;19.11
30856;BME280;17570;0.000;0.000;2023-03-14T16:21:59;96088.93;;;23.91;17.40
30856;BME280;17570;0.000;0.000;2023-03-14T16:24:27;96083.48;;;24.51;18.19
30856;BME280;17570;0.000;0.000;2023-03-14T16:26:54;96086.70;;;24.77;16.69
30856;BME280;17570;0.000;0.000;2023-03-14T16:29:22;96092.23;;;24.75;16.64
30856;BME280;17570;0.000;0.000;2023-03-14T16:31:49;96093.03;;;24.76;16.46
30856;BME280;17570;0.000;0.000;2023-03-14T16:34:17;96083.95;;;24.72;16.28
30856;BME280;17570;0.000;0.000;2023-03-14T16:36:44;96083.14;;;24.59;16.79
30856;BME280;17570;0.000;0.000;2023-03-14T16:39:13;96087.64;;;24.59;16.16
30856;BME280;17570;0.000;0.000;2023-03-14T16:41:41;96082.33;;;24.47;16.62
30856;BME280;17570;0.000;0.000;2023-03-14T16:44:08;96079.20;;;24.38;16.48
30856;BME280;17570;0.000;0.000;2023-03-14T16:46:36;96082.52;;;24.34;16.96
30856;BME280;17570;0.000;0.000;2023-03-14T16:49:04;96087.70;;;24.29;17.05
30856;BME280;17570;0.000;0.000;2023-03-14T16:51:32;96092.45;;;24.27;17.02
30856;BME280;17570;0.000;0.000;2023-03-14T16:53:59;96091.29;;;24.23;17.10
30856;BME280;17570;0.000;0.000;2023-03-14T16:56:27;96073.05;;;24.14;17.28
30856;BME280;17570;0.000;0.000;2023-03-14T16:58:54;96079.52;;;24.07;17.33
30856;BME280;17570;0.000;0.000;2023-03-14T17:01:21;96081.81;;;24.03;17.09
30856;BME280;17570;0.000;0.000;2023-03-14T17:03:49;96081.02;;;24.03;17.08
30856;BME280;17570;0.000;0.000;2023-03-14T17:06:23;96073.83;;;23.91;17.44
30856;BME280;17570;0.000;0.000;2023-03-14T17:08:48;96077.16;;;23.87;17.55
30856;BME280;17570;0.000;0.000;2023-03-14T17:11:16;96073.82;;;23.80;17.83
30856;BME280;17570;0.000;0.000;2023-03-14T17:13:44;96067.92;;;23.78;18.15
30856;BME280;17570;0.000;0.000;2023-03-14T17:16:11;96067.92;;;23.78;18.02
30856;BME280;17570;0.000;0.000;2023-03-14T17:18:39;96068.03;;;23.71;18.21
30856;BME280;17570;0.000;0.000;2023-03-14T17:21:06;96066.87;;;23.67;18.11
30856;BME280;17570;0.000;0.000;2023-03-14T17:23:34;96073.05;;;23.61;18.54
30856;BME280;17570;0.000;0.000;2023-03-14T17:26:04;96068.79;;;23.60;18.16
30856;BME280;17570;0.000;0.000;2023-03-14T17:28:31;96065.05;;;23.49;18.37
30856;BME280;17570;0.000;0.000;2023-03-14T17:33:31;96069.85;;;23.40;18.84
30856;BME280;17570;0.000;0.000;2023-03-14T17:36:00;96065.70;;;23.33;19.36
30856;BME280;17570;0.000;0.000;2023-03-14T17:38:28;96069.02;;;23.28;19.43
30856;BME280;17570;0.000;0.000;2023-03-14T17:40:56;96062.78;;;23.23;19.47
30856;BME280;17570;0.000;0.000;2023-03-14T17:43:23;96059.30;;;23.22;18.75
30856;BME280;17570;0.000;0.000;2023-03-14T17:46:00;96055.57;;;23.11;19.65
30856;BME280;17570;0.000;0.000;2023-03-14T17:48:30;96060.73;;;23.06;19.51
30856;BME280;17570;0.000;0.000;2023-03-14T17:50:57;96055.59;;;22.93;19.68
30856;BME280;17570;0.000;0.000;2023-03-14T17:53:27;96057.49;;;22.86;20.32
30856;BME280;17570;0.000;0.000;2023-03-14T17:55:54;96064.25;;;22.82;20.03
30856;BME280;17570;0.000;0.000;2023-03-14T17:58:23;96064.92;;;22.77;20.88